Time;durP1;ratioP1;P1;durP2;ratioP2;P2;SDS_P1;SDS_P2;PMS_P1;PMS_P2;Temp;Humidity;BMP_temperature;BMP_pressure;BME280_temperature;BME280_humidity;BME280_pressure;Samples;Min_cycle;Max_cycle;Signal;HPM_P1;HPM_P2
2022/12/09 00:00:44;;;;;;;24.72;15.78;;;;;;;-0.33;100.00;99891.52;1757436;80;21053;-76
2022/12/09 00:03:11;;;;;;;30.30;19.20;;;;;;;-0.40;100.00;99881.83;1738151;80;21739;-86
2022/12/09 00:05:40;;;;;;;34.83;18.07;;;;;;;-0.52;100.00;99879.58;1750690;80;21041;-83
2022/12/09 00:08:09;;;;;;;41.80;21.50;;;;;;;-0.54;100.00;99883.40;1752403;80;21035;-73
2022/12/09 00:10:36;;;;;;;31.93;17.13;;;;;;;-0.59;100.00;99887.88;1765208;80;21076;-75
2022/12/09 00:13:02;;;;;;;34.97;21.53;;;;;;;-0.65;100.00;99883.28;1760316;80;21083;-75
2022/12/09 00:15:30;;;;;;;34.77;18.77;;;;;;;-0.70;100.00;99880.83;1752770;81;21020;-74
2022/12/09 00:17:57;;;;;;;36.23;19.63;;;;;;;-0.73;100.00;99878.05;1735226;82;21619;-73
2022/12/09 00:20:24;;;;;;;46.40;21.53;;;;;;;-0.77;100.00;99870.16;1743189;80;21551;-73
2022/12/09 00:22:50;;;;;;;36.57;19.23;;;;;;;-0.78;100.00;99866.36;1754833;80;21037;-77
2022/12/09 00:25:17;;;;;;;40.97;20.27;;;;;;;-0.75;100.00;99862.04;1760531;80;21026;-75
2022/12/09 00:27:43;;;;;;;40.97;20.63;;;;;;;-0.73;100.00;99860.89;1757490;80;21042;-76
2022/12/09 00:30:10;;;;;;;45.77;21.30;;;;;;;-0.73;100.00;99867.98;1752657;80;21120;-74
2022/12/09 00:32:38;;;;;;;36.17;18.63;;;;;;;-0.71;100.00;99858.05;1750161;79;21097;-75
2022/12/09 00:35:05;;;;;;;38.73;22.70;;;;;;;-0.66;100.00;99854.40;1757625;79;21151;-76
2022/12/09 00:37:33;;;;;;;39.87;21.80;;;;;;;-0.66;100.00;99836.73;1713585;81;21044;-73
2022/12/09 00:40:00;;;;;;;34.87;19.73;;;;;;;-0.63;100.00;99826.34;1681080;82;21048;-76
2022/12/09 00:42:27;;;;;;;35.53;18.97;;;;;;;-0.58;100.00;99817.40;1753079;80;20953;-75
2022/12/09 00:44:53;;;;;;;46.20;21.83;;;;;;;-0.51;100.00;99822.28;1758952;79;21004;-74
2022/12/09 00:47:20;;;;;;;37.30;17.93;;;;;;;-0.47;100.00;99828.36;1751116;80;21556;-72
2022/12/09 00:49:48;;;;;;;39.70;21.40;;;;;;;-0.40;100.00;99822.38;1757230;79;21084;-75
2022/12/09 00:52:16;;;;;;;42.13;22.87;;;;;;;-0.44;100.00;99825.88;1760201;80;21028;-73
2022/12/09 00:54:43;;;;;;;41.83;20.20;;;;;;;-0.46;100.00;99842.39;1759663;80;20993;-74
2022/12/09 00:57:09;;;;;;;42.77;20.57;;;;;;;-0.44;100.00;99858.91;1744232;80;21046;-78
2022/12/09 00:59:36;;;;;;;49.53;22.13;;;;;;;-0.47;100.00;99871.95;1711562;81;21521;-75
2022/12/09 01:02:03;;;;;;;42.43;20.87;;;;;;;-0.52;100.00;99867.69;1753131;80;21162;-74
2022/12/09 01:04:31;;;;;;;39.00;18.57;;;;;;;-0.55;100.00;99868.54;1758589;80;21240;-74
2022/12/09 01:06:57;;;;;;;36.10;19.17;;;;;;;-0.57;100.00;99867.38;1758657;80;21015;-72
2022/12/09 01:09:24;;;;;;;50.43;22.47;;;;;;;-0.61;100.00;99863.95;1757936;78;21095;-76
2022/12/09 01:11:51;;;;;;;51.83;24.00;;;;;;;-0.62;100.00;99863.61;1709733;80;20984;-75
2022/12/09 01:14:17;;;;;;;42.40;21.23;;;;;;;-0.67;100.00;99865.45;1746017;80;21012;-78
2022/12/09 01:16:44;;;;;;;55.87;25.83;;;;;;;-0.66;100.00;99858.36;1697393;82;21883;-81
2022/12/09 01:19:11;;;;;;;51.48;23.47;;;;;;;-0.68;100.00;99865.16;1715282;80;21039;-81
2022/12/09 01:21:42;;;;;;;45.23;25.43;;;;;;;-0.69;100.00;99859.55;1747782;80;21581;-83
2022/12/09 01:24:10;;;;;;;45.40;25.17;;;;;;;-0.65;100.00;99848.13;1772194;79;21068;-75
2022/12/09 01:26:37;;;;;;;43.50;22.07;;;;;;;-0.63;100.00;99843.02;1754371;78;21187;-76
2022/12/09 01:29:05;;;;;;;44.47;23.27;;;;;;;-0.67;100.00;99820.56;1744865;79;21145;-73
2022/12/09 01:31:31;;;;;;;45.80;23.83;;;;;;;-0.71;100.00;99827.69;1744628;79;21555;-74
2022/12/09 01:33:58;;;;;;;50.70;23.97;;;;;;;-0.75;100.00;99839.59;1730474;80;22258;-76
2022/12/09 01:36:27;;;;;;;41.50;21.37;;;;;;;-0.73;100.00;99831.84;1748958;80;20995;-76
2022/12/09 01:38:55;;;;;;;39.07;20.47;;;;;;;-0.73;100.00;99827.88;1715303;80;21087;-74
2022/12/09 01:41:22;;;;;;;44.40;23.80;;;;;;;-0.74;100.00;99828.05;1760760;79;21792;-77
2022/12/09 01:44:22;;;;;;;42.63;21.43;;;;;;;-0.76;100.00;99815.50;1752883;80;21558;-75
2022/12/09 01:46:49;;;;;;;35.73;19.37;;;;;;;-0.71;100.00;99803.42;1730497;78;21087;-76
2022/12/09 01:49:20;;;;;;;37.27;20.33;;;;;;;-0.69;100.00;99811.19;1727059;80;21047;-70
2022/12/09 01:52:01;;;;;;;34.20;18.47;;;;;;;-0.71;100.00;99805.24;1757302;80;21546;-67
2022/12/09 01:54:29;;;;;;;38.63;19.90;;;;;;;-0.75;100.00;99815.83;1758147;80;21531;-69
2022/12/09 01:56:56;;;;;;;30.17;16.97;;;;;;;-0.82;100.00;99795.09;1745804;80;21407;-73
2022/12/09 07:09:18;;;;;;;24.13;16.47;;;;;;;-1.13;100.00;99723.84;1696805;80;42529;-77
2022/12/09 07:11:45;;;;;;;28.80;17.47;;;;;;;-1.08;100.00;99731.56;1665814;85;21035;-79
2022/12/09 07:14:14;;;;;;;26.07;17.13;;;;;;;-1.01;100.00;99736.45;1647720;87;21173;-81
2022/12/09 07:16:41;;;;;;;23.67;15.43;;;;;;;-0.97;100.00;99732.48;1647125;85;21089;-79
2022/12/09 07:19:20;;;;;;;29.77;17.43;;;;;;;-0.89;100.00;99725.00;1646598;87;21042;-77
2022/12/09 07:21:49;;;;;;;27.60;17.07;;;;;;;-0.85;100.00;99724.97;1646447;86;21027;-78
2022/12/09 07:24:17;;;;;;;20.27;14.60;;;;;;;-0.81;100.00;99729.39;1652796;85;21005;-79
2022/12/09 07:26:43;;;;;;;33.87;20.77;;;;;;;-0.76;100.00;99724.41;1649115;85;22056;-80
2022/12/09 07:29:10;;;;;;;27.93;17.97;;;;;;;-0.72;100.00;99712.52;1656681;84;21587;-76
2022/12/09 07:31:36;;;;;;;21.20;15.70;;;;;;;-0.62;100.00;99712.58;1647709;87;20971;-79
2022/12/09 07:34:04;;;;;;;23.77;15.47;;;;;;;-0.55;100.00;99706.92;1647596;87;20959;-79
2022/12/09 07:36:32;;;;;;;28.60;18.60;;;;;;;-0.43;100.00;99702.55;1647573;85;21101;-79
2022/12/09 07:39:03;;;;;;;29.37;18.73;;;;;;;-0.39;100.00;99699.36;1663033;85;21250;-78
2022/12/09 07:41:30;;;;;;;25.53;15.47;;;;;;;-0.35;100.00;99695.86;1649319;85;21091;-78
2022/12/09 07:43:57;;;;;;;21.13;14.87;;;;;;;-0.23;100.00;99698.37;1675452;85;21505;-77
2022/12/09 07:46:28;;;;;;;25.47;16.60;;;;;;;-0.12;100.00;99692.16;1651086;85;21614;-79
2022/12/09 07:48:53;;;;;;;24.77;16.62;;;;;;;-0.05;100.00;99689.62;1647130;85;21033;-77
2022/12/09 07:51:20;;;;;;;22.43;16.57;;;;;;;-0.04;100.00;99691.23;1660341;85;21073;-75
2022/12/09 07:53:47;;;;;;;24.40;18.40;;;;;;;-0.08;100.00;99679.38;1680239;85;21066;-77
2022/12/09 07:56:18;;;;;;;23.50;17.17;;;;;;;-0.16;100.00;99681.63;1670989;83;20977;-76
2022/12/09 07:58:51;;;;;;;22.53;16.27;;;;;;;-0.15;100.00;99680.63;1628269;87;21060;-77
2022/12/09 08:01:28;;;;;;;26.13;18.20;;;;;;;-0.12;100.00;99686.04;1618599;87;21076;-79
2022/12/09 08:03:56;;;;;;;22.87;17.93;;;;;;;-0.08;100.00;99689.45;1646403;87;21170;-78
2022/12/09 08:06:25;;;;;;;22.82;15.90;;;;;;;-0.03;100.00;99701.63;1646362;86;21044;-75
2022/12/09 08:08:52;;;;;;;19.90;14.33;;;;;;;0.03;100.00;99704.05;1646105;86;21613;-75
2022/12/09 08:11:24;;;;;;;21.65;16.17;;;;;;;0.02;100.00;99705.55;1618450;87;20977;-76
2022/12/09 08:13:51;;;;;;;26.83;19.23;;;;;;;0.04;100.00;99704.38;1619846;88;21112;-79
2022/12/09 08:16:20;;;;;;;24.27;18.75;;;;;;;0.05;100.00;99698.59;1620391;87;21712;-83
2022/12/09 08:18:47;;;;;;;21.20;14.73;;;;;;;0.11;100.00;99700.49;1634548;87;21646;-78
2022/12/09 08:21:18;;;;;;;24.92;17.77;;;;;;;0.17;100.00;99696.63;1612457;87;21079;-81
2022/12/09 08:23:44;;;;;;;22.05;17.52;;;;;;;0.21;100.00;99691.78;1631727;87;21490;-76
2022/12/09 08:26:12;;;;;;;29.37;20.70;;;;;;;0.19;100.00;99695.92;1626987;87;21073;-84
2022/12/09 08:28:38;;;;;;;26.23;19.30;;;;;;;0.19;100.00;99691.95;1645804;87;21132;-77
2022/12/09 08:31:08;;;;;;;27.85;20.57;;;;;;;0.28;100.00;99691.39;1624901;86;20957;-75
2022/12/09 08:33:35;;;;;;;42.05;29.72;;;;;;;0.34;100.00;99693.27;1578979;87;21612;-75
2022/12/09 08:36:02;;;;;;;64.50;44.10;;;;;;;0.41;100.00;99680.97;1619221;87;21044;-72
2022/12/09 08:38:30;;;;;;;76.75;52.53;;;;;;;0.42;100.00;99682.11;1601114;88;21577;-72
2022/12/09 08:40:58;;;;;;;55.48;38.30;;;;;;;0.36;100.00;99678.88;1607981;88;21242;-75
2022/12/09 08:43:26;;;;;;;49.55;31.82;;;;;;;0.34;100.00;99677.41;1597867;88;21032;-83
2022/12/09 08:45:53;;;;;;;67.78;50.33;;;;;;;0.29;100.00;99668.70;1594092;89;21100;-85
2022/12/09 08:48:20;;;;;;;57.35;41.20;;;;;;;0.20;100.00;99668.98;1599529;87;21062;-87
2022/12/09 08:50:49;;;;;;;51.08;36.23;;;;;;;0.13;100.00;99666.27;1576699;89;21143;-83
2022/12/09 08:53:16;;;;;;;48.15;31.70;;;;;;;0.13;100.00;99662.30;1612728;88;21176;-82
2022/12/09 08:55:42;;;;;;;44.13;28.30;;;;;;;0.17;100.00;99658.78;1617292;87;21121;-84
2022/12/09 08:58:09;;;;;;;51.60;33.00;;;;;;;0.21;100.00;99661.38;1618455;88;21078;-83
2022/12/09 09:00:35;;;;;;;49.90;32.63;;;;;;;0.23;100.00;99658.06;1624768;87;21156;-78
2022/12/09 09:03:02;;;;;;;44.95;32.78;;;;;;;0.22;100.00;99653.27;1632481;87;21080;-82
2022/12/09 09:05:29;;;;;;;53.73;34.50;;;;;;;0.25;100.00;99647.59;1637167;87;22227;-77
2022/12/09 09:07:55;;;;;;;52.70;35.35;;;;;;;0.27;100.00;99640.31;1615152;88;20960;-78
2022/12/09 09:10:22;;;;;;;41.30;30.60;;;;;;;0.36;100.00;99644.98;1649277;85;21011;-80
2022/12/09 09:12:49;;;;;;;46.18;31.93;;;;;;;0.44;100.00;99650.16;1651295;85;21292;-85
2022/12/09 09:15:16;;;;;;;43.55;33.42;;;;;;;0.43;100.00;99638.75;1630822;83;21547;-78
2022/12/09 09:17:43;;;;;;;53.92;36.77;;;;;;;0.36;100.00;99640.52;1637591;86;21261;-78
2022/12/09 09:20:10;;;;;;;62.60;38.30;;;;;;;0.32;100.00;99634.47;1624171;88;21053;-77
2022/12/09 09:22:37;;;;;;;47.00;32.95;;;;;;;0.33;100.00;99640.08;1646041;86;21322;-75
2022/12/09 09:25:04;;;;;;;51.60;37.17;;;;;;;0.43;100.00;99638.75;1624813;86;21073;-76
2022/12/09 09:27:33;;;;;;;52.90;34.80;;;;;;;0.50;100.00;99644.64;1609153;86;21062;-77
2022/12/09 09:30:00;;;;;;;60.25;37.80;;;;;;;0.58;100.00;99644.02;1613853;86;21132;-74
2022/12/09 09:32:26;;;;;;;50.17;33.40;;;;;;;0.67;100.00;99636.80;1666251;84;21058;-79
2022/12/09 09:34:53;;;;;;;59.60;36.50;;;;;;;0.74;100.00;99637.68;1668767;84;21046;-76
2022/12/09 09:37:20;;;;;;;66.70;36.13;;;;;;;0.76;100.00;99635.67;1654881;86;21020;-72
2022/12/09 09:39:46;;;;;;;52.58;32.88;;;;;;;0.76;100.00;99637.00;1654361;85;21215;-73
2022/12/09 09:42:21;;;;;;;65.62;33.25;;;;;;;0.73;100.00;99636.03;1657712;85;22690;-75
2022/12/09 09:44:50;;;;;;;65.97;35.52;;;;;;;0.73;100.00;99627.59;1632201;84;21074;-71
2022/12/09 09:47:34;;;;;;;77.37;44.40;;;;;;;0.74;100.00;99629.23;1654034;86;21038;-72
2022/12/09 09:50:23;;;;;;;46.25;27.93;;;;;;;0.76;100.00;99619.80;1653697;86;20967;-74
2022/12/09 09:52:53;;;;;;;50.48;30.25;;;;;;;0.81;100.00;99624.84;1637162;86;21051;-75
2022/12/09 09:55:28;;;;;;;48.98;29.82;;;;;;;0.83;100.00;99614.05;1654214;84;21147;-76
2022/12/09 16:15:31;;;;;;;68.77;38.07;;;;;;;0.79;100.00;99450.83;1739615;80;28187;-81
2022/12/09 16:17:58;;;;;;;66.92;35.30;;;;;;;0.83;100.00;99452.58;1675670;84;20990;-79
2022/12/09 16:20:34;;;;;;;68.30;37.50;;;;;;;0.88;100.00;99456.78;1603896;85;21245;-75
2022/12/09 16:23:02;;;;;;;65.50;35.05;;;;;;;0.90;100.00;99460.07;1686095;84;22235;-69
2022/12/09 16:25:40;;;;;;;72.72;36.70;;;;;;;0.95;100.00;99460.31;1683338;84;21037;-70
2022/12/09 16:28:06;;;;;;;65.10;37.20;;;;;;;1.01;100.00;99458.19;1682270;85;20962;-69
2022/12/09 16:30:43;;;;;;;61.65;32.70;;;;;;;1.02;100.00;99452.39;1683288;85;21021;-70
2022/12/09 16:33:16;;;;;;;63.17;32.85;;;;;;;1.03;100.00;99446.91;1683186;84;21185;-69
2022/12/09 16:35:44;;;;;;;;;;;;;;;1.00;100.00;99444.66;1686300;85;21633;-70
2022/12/09 16:38:19;;;;;;;70.17;39.35;;;;;;;1.00;100.00;99443.84;1683577;85;20121;-75
2022/12/09 16:40:59;;;;;;;64.32;34.70;;;;;;;1.03;100.00;99438.15;1683008;85;21622;-75
2022/12/09 16:43:32;;;;;;;85.62;46.00;;;;;;;1.06;100.00;99439.07;1682080;84;21089;-76
2022/12/09 16:46:14;;;;;;;73.15;41.50;;;;;;;1.07;100.00;99436.23;1684348;84;21155;-72
2022/12/09 16:48:48;;;;;;;65.70;38.45;;;;;;;1.15;100.00;99436.61;1665895;85;21110;-69
2022/12/09 16:51:19;;;;;;;67.35;39.50;;;;;;;1.20;100.00;99431.54;1660889;85;21689;-70
2022/12/09 16:53:51;;;;;;;82.53;42.25;;;;;;;1.33;100.00;99429.45;1687711;84;21051;-73
2022/12/09 16:56:21;;;;;;;95.35;44.03;;;;;;;1.39;100.00;99431.33;1683949;85;21051;-71
2022/12/09 16:58:49;;;;;;;79.40;39.65;;;;;;;1.37;100.00;99446.08;1683902;85;21465;-76
2022/12/09 17:01:17;;;;;;;75.05;40.75;;;;;;;1.40;100.00;99448.33;1685886;85;21098;-69
2022/12/09 17:03:50;;;;;;;82.65;41.77;;;;;;;1.39;100.00;99446.69;1686498;85;21014;-74
2022/12/09 17:06:17;;;;;;;82.65;37.53;;;;;;;1.49;100.00;99451.63;1661390;85;21139;-72
2022/12/09 17:08:46;;;;;;;75.12;38.20;;;;;;;1.56;100.00;99463.08;1684309;85;21862;-75
2022/12/09 17:11:20;;;;;;;75.08;38.20;;;;;;;1.69;100.00;99456.00;1682610;85;21245;-72
2022/12/09 17:13:55;;;;;;;76.65;36.53;;;;;;;1.75;100.00;99453.89;1660104;85;21544;-74
2022/12/09 17:16:34;;;;;;;66.00;36.38;;;;;;;1.74;100.00;99456.22;1660322;85;21085;-73
2022/12/09 17:19:09;;;;;;;69.12;37.40;;;;;;;1.77;100.00;99455.02;1656253;85;21141;-74
2022/12/09 17:21:36;;;;;;;72.10;37.13;;;;;;;1.75;100.00;99457.05;1683969;85;21034;-73
2022/12/09 17:24:06;;;;;;;76.00;36.60;;;;;;;1.70;100.00;99458.97;1659370;85;21053;-73
2022/12/09 17:26:36;;;;;;;70.03;35.45;;;;;;;1.66;100.00;99455.08;1677892;85;21551;-74
2022/12/09 17:29:06;;;;;;;78.75;38.55;;;;;;;1.65;100.00;99460.06;1683775;85;21053;-73
2022/12/09 17:31:39;;;;;;;74.85;37.48;;;;;;;1.67;100.00;99458.55;1683448;85;21058;-74
2022/12/09 17:34:09;;;;;;;88.42;43.05;;;;;;;1.66;100.00;99458.23;1659450;85;21207;-74
2022/12/09 17:36:48;;;;;;;82.40;41.18;;;;;;;1.62;100.00;99453.02;1683716;85;21158;-73
2022/12/09 17:39:15;;;;;;;74.50;37.63;;;;;;;1.56;100.00;99453.30;1683507;84;21010;-71
2022/12/09 17:41:43;;;;;;;93.78;40.40;;;;;;;1.53;100.00;99450.23;1683791;85;21144;-75
2022/12/09 17:44:10;;;;;;;80.60;41.20;;;;;;;1.52;100.00;99449.42;1683659;85;21391;-75
2022/12/09 17:46:43;;;;;;;87.27;40.08;;;;;;;1.52;100.00;99447.27;1660244;85;21578;-75
2022/12/09 17:49:19;;;;;;;74.25;37.85;;;;;;;1.52;100.00;99449.42;1683730;85;21136;-77
2022/12/09 17:51:49;;;;;;;79.58;38.70;;;;;;;1.54;100.00;99450.02;1683278;85;21331;-76
2022/12/09 17:54:20;;;;;;;90.07;44.75;;;;;;;1.57;100.00;99446.99;1683078;84;20943;-75
2022/12/09 17:56:49;;;;;;;73.55;35.13;;;;;;;1.60;100.00;99451.06;1659947;85;21185;-76
2022/12/09 17:59:17;;;;;;;62.30;33.73;;;;;;;1.63;100.00;99451.48;1683648;85;21633;-75
2022/12/09 18:01:45;;;;;;;90.97;43.92;;;;;;;1.64;100.00;99441.70;1680777;85;21070;-77
2022/12/09 18:04:14;;;;;;;84.62;42.93;;;;;;;1.64;100.00;99440.38;1638548;85;21558;-76
2022/12/09 18:06:53;;;;;;;73.40;39.98;;;;;;;1.66;100.00;99444.98;1659820;85;21605;-81
2022/12/09 18:09:25;;;;;;;90.75;39.38;;;;;;;1.73;100.00;99439.18;1683013;85;21045;-77
2022/12/09 18:11:58;;;;;;;107.75;51.10;;;;;;;1.78;100.00;99437.26;1679007;85;21094;-76
2022/12/09 18:14:30;;;;;;;89.42;42.67;;;;;;;1.80;100.00;99441.87;1650414;86;21111;-74
2022/12/09 18:17:12;;;;;;;114.30;52.62;;;;;;;1.83;100.00;99436.16;1667861;86;21055;-79
2022/12/09 18:20:03;;;;;;;96.45;47.35;;;;;;;1.86;100.00;99433.94;1652104;86;21018;-82
2022/12/09 18:22:38;;;;;;;79.58;41.28;;;;;;;1.93;100.00;99429.96;1614265;88;21482;-80
2022/12/09 18:25:10;;;;;;;93.55;45.95;;;;;;;1.90;100.00;99420.59;1618886;88;21113;-84
2022/12/09 18:27:56;;;;;;;69.42;40.28;;;;;;;1.89;100.00;99420.27;1664772;86;21729;-82
